Time;durP1;ratioP1;P1;durP2;ratioP2;P2;SDS_P1;SDS_P2;PMS_P1;PMS_P2;Temp;Humidity;BMP_temperature;BMP_pressure;BME280_temperature;BME280_humidity;BME280_pressure;Samples;Min_cycle;Max_cycle;Signal;HPM_P1;HPM_P2
2023/02/03 00:01:40;;;;;;;;;;;9.80;99.90;;;;;;5033428;28;19991;-82
2023/02/03 00:04:05;;;;;;;;;;;9.80;99.90;;;;;;5033610;28;19909;-81
2023/02/03 00:06:31;;;;;;;;;;;9.90;99.90;;;;;;5033172;28;20338;-81
2023/02/03 00:09:00;;;;;;;;;;;9.90;99.90;;;;;;5032283;28;19916;-83
2023/02/03 00:11:28;;;;;;;;;;;9.90;99.90;;;;;;5031699;28;19909;-82
2023/02/03 00:13:53;;;;;;;;;;;9.90;99.90;;;;;;5033514;28;19917;-81
2023/02/03 00:16:19;;;;;;;;;;;9.80;99.90;;;;;;5032055;28;19910;-81
2023/02/03 00:18:44;;;;;;;;;;;9.80;99.90;;;;;;5031904;28;20318;-82
2023/02/03 00:21:09;;;;;;;;;;;9.80;99.90;;;;;;5031533;28;19971;-81
2023/02/03 00:23:35;;;;;;;;;;;9.80;99.90;;;;;;5031793;28;19916;-82
2023/02/03 00:26:11;;;;;;;;;;;9.80;99.90;;;;;;5031967;28;19968;-82
2023/02/03 00:28:36;;;;;;;;;;;9.80;99.90;;;;;;5031553;28;20378;-82
2023/02/03 00:31:02;;;;;;;;;;;9.80;99.90;;;;;;5031498;28;20007;-82
2023/02/03 00:33:27;;;;;;;;;;;9.90;99.90;;;;;;5031897;28;20006;-84
2023/02/03 00:35:53;;;;;;;;;;;9.90;99.90;;;;;;5032722;28;20282;-82
2023/02/03 00:38:18;;;;;;;;;;;10.00;99.90;;;;;;5033143;28;19916;-82
2023/02/03 00:40:50;;;;;;;;;;;9.90;99.90;;;;;;5033268;28;19959;-82
2023/02/03 00:43:16;;;;;;;;;;;9.90;99.90;;;;;;5055031;22;19925;-79
2023/02/03 00:45:41;;;;;;;;;;;10.00;99.90;;;;;;5053842;28;19909;-78
2023/02/03 00:48:07;;;;;;;;;;;10.00;99.90;;;;;;5053448;28;20267;-78
2023/02/03 00:50:32;;;;;;;;;;;10.00;99.90;;;;;;5053699;28;19916;-78
2023/02/03 00:52:58;;;;;;;;;;;10.00;99.90;;;;;;5046460;28;20008;-79
2023/02/03 00:55:23;;;;;;;;;;;9.90;99.90;;;;;;5051359;28;19912;-79
2023/02/03 00:57:49;;;;;;;;;;;9.90;99.90;;;;;;5037416;28;19982;-78
2023/02/03 01:00:15;;;;;;;;;;;9.90;99.90;;;;;;5031885;28;19910;-78
2023/02/03 01:02:40;;;;;;;;;;;9.90;99.90;;;;;;5035544;28;19920;-78
2023/02/03 01:05:32;;;;;;;;;;;9.90;99.90;;;;;;5055567;28;19939;-79
2023/02/03 01:11:31;;;;;;;;;;;9.90;99.90;;;;;;5057225;28;19909;-78
2023/02/03 01:14:00;;;;;;;;;;;10.00;99.90;;;;;;5061345;28;19956;-79
2023/02/03 01:22:41;;;;;;;;;;;9.90;99.90;;;;;;5017798;28;19917;-79
2023/02/03 01:25:07;;;;;;;;;;;10.00;99.90;;;;;;5006576;28;20406;-80
2023/02/03 01:27:33;;;;;;;;;;;10.00;99.90;;;;;;5036791;28;19913;-80
2023/02/03 01:29:58;;;;;;;;;;;10.00;99.90;;;;;;5064706;28;19913;-81
2023/02/03 01:32:27;;;;;;;;;;;10.00;99.90;;;;;;5067544;28;20043;-80
2023/02/03 01:34:52;;;;;;;;;;;10.00;99.90;;;;;;5062559;28;20321;-81
2023/02/03 01:37:18;;;;;;;;;;;10.00;99.90;;;;;;5058975;28;19935;-80
2023/02/03 01:39:43;;;;;;;;;;;10.00;99.90;;;;;;5045506;28;19909;-81
2023/02/03 01:42:12;;;;;;;;;;;10.00;99.90;;;;;;5038890;28;19968;-80
2023/02/03 01:44:49;;;;;;;;;;;9.90;99.90;;;;;;5037534;28;19921;-80
2023/02/03 01:47:15;;;;;;;;;;;9.90;99.90;;;;;;5038815;28;19967;-81
2023/02/03 01:49:43;;;;;;;;;;;9.90;99.90;;;;;;5037653;28;19909;-80
2023/02/03 01:52:10;;;;;;;;;;;9.90;99.90;;;;;;5038309;28;19917;-80
2023/02/03 01:54:38;;;;;;;;;;;9.90;99.90;;;;;;5038574;28;20283;-81
2023/02/03 01:57:06;;;;;;;;;;;9.90;99.90;;;;;;5038314;28;19967;-81
2023/02/03 01:59:33;;;;;;;;;;;9.90;99.90;;;;;;5036676;28;19917;-81
2023/02/03 02:01:59;;;;;;;;;;;9.90;99.90;;;;;;5036641;28;19914;-79
2023/02/03 02:04:27;;;;;;;;;;;9.90;99.90;;;;;;5037291;28;19960;-80
2023/02/03 02:06:56;;;;;;;;;;;9.90;99.90;;;;;;5037045;28;19987;-81
2023/02/03 02:09:23;;;;;;;;;;;9.90;99.90;;;;;;5036436;28;19954;-81
2023/02/03 02:11:48;;;;;;;;;;;9.80;99.90;;;;;;5036508;28;19920;-81
2023/02/03 02:14:14;;;;;;;;;;;9.90;99.90;;;;;;5037700;28;19909;-81
2023/02/03 02:16:48;;;;;;;;;;;9.90;99.90;;;;;;5035668;28;19931;-81
2023/02/03 02:19:39;;;;;;;;;;;9.80;99.90;;;;;;5038032;28;20012;-81
2023/02/03 02:22:34;;;;;;;;;;;9.90;99.90;;;;;;5037809;28;19909;-79
2023/02/03 02:25:14;;;;;;;;;;;9.90;99.90;;;;;;4960079;28;19910;-81
2023/02/03 02:27:58;;;;;;;;;;;9.90;99.90;;;;;;4964794;28;19941;-80
2023/02/03 02:30:42;;;;;;;;;;;9.90;99.90;;;;;;5036180;28;20382;-81
2023/02/03 02:33:14;;;;;;;;;;;9.90;99.90;;;;;;5035585;28;19909;-80
2023/02/03 02:35:46;;;;;;;;;;;9.90;99.90;;;;;;5037529;28;19970;-80
2023/02/03 02:38:11;;;;;;;;;;;10.00;99.90;;;;;;5036116;28;19909;-81
2023/02/03 02:40:43;;;;;;;;;;;10.00;99.90;;;;;;5035993;28;19944;-81
2023/02/03 02:43:09;;;;;;;;;;;9.90;99.90;;;;;;5035672;28;19978;-81
2023/02/03 02:45:40;;;;;;;;;;;9.90;99.90;;;;;;5035796;28;19909;-80
2023/02/03 02:48:15;;;;;;;;;;;9.90;99.90;;;;;;5036904;28;19921;-81
2023/02/03 02:50:43;;;;;;;;;;;9.90;99.90;;;;;;5037136;28;19909;-80
2023/02/03 02:53:10;;;;;;;;;;;9.90;99.90;;;;;;5037056;28;19935;-80
2023/02/03 02:55:37;;;;;;;;;;;9.90;99.90;;;;;;5035829;28;19909;-81
2023/02/03 02:58:05;;;;;;;;;;;9.70;99.90;;;;;;5035322;28;19916;-80
2023/02/03 03:00:32;;;;;;;;;;;9.70;99.90;;;;;;5035532;28;20374;-80
2023/02/03 03:03:06;;;;;;;;;;;9.70;99.90;;;;;;5035218;28;19913;-81
2023/02/03 03:05:31;;;;;;;;;;;9.80;99.90;;;;;;5035771;28;19909;-81
2023/02/03 03:07:58;;;;;;;;;;;9.80;99.90;;;;;;5036682;28;20385;-80
2023/02/03 03:10:26;;;;;;;;;;;9.80;99.90;;;;;;5037014;28;20329;-81
2023/02/03 03:12:57;;;;;;;;;;;9.80;99.90;;;;;;5034633;28;19909;-80
2023/02/03 03:15:24;;;;;;;;;;;9.80;99.90;;;;;;5036616;28;19909;-80
2023/02/03 03:18:10;;;;;;;;;;;9.80;99.90;;;;;;5035824;28;19913;-80
2023/02/03 03:20:38;;;;;;;;;;;9.80;99.90;;;;;;5035409;28;19909;-80
2023/02/03 03:23:09;;;;;;;;;;;9.80;99.90;;;;;;5036226;28;19909;-80
2023/02/03 03:25:40;;;;;;;;;;;9.80;99.90;;;;;;5034526;28;20349;-80
2023/02/03 03:28:12;;;;;;;;;;;9.80;99.90;;;;;;5034383;28;19913;-80
2023/02/03 03:30:38;;;;;;;;;;;9.90;99.90;;;;;;5035523;28;20355;-80
2023/02/03 03:33:04;;;;;;;;;;;9.90;99.90;;;;;;5034372;28;19909;-81
2023/02/03 03:35:31;;;;;;;;;;;9.90;99.90;;;;;;5034611;28;19909;-80
2023/02/03 03:38:10;;;;;;;;;;;9.90;99.90;;;;;;5035811;28;19917;-80
2023/02/03 03:40:42;;;;;;;;;;;9.80;99.90;;;;;;5035903;28;20286;-80
2023/02/03 03:43:15;;;;;;;;;;;9.80;99.90;;;;;;5035001;28;19924;-81
2023/02/03 03:45:44;;;;;;;;;;;9.90;99.90;;;;;;5035311;28;19909;-81
2023/02/03 03:48:25;;;;;;;;;;;9.90;99.90;;;;;;5033836;28;20016;-83
2023/02/03 03:51:26;;;;;;;;;;;9.90;99.90;;;;;;5035695;28;19909;-79
2023/02/03 03:53:52;;;;;;;;;;;9.80;99.90;;;;;;4957868;28;19967;-81
2023/02/03 03:56:29;;;;;;;;;;;9.90;99.90;;;;;;5022111;28;19917;-80
2023/02/03 03:58:56;;;;;;;;;;;9.80;99.90;;;;;;5035517;28;20286;-80
2023/02/03 04:01:22;;;;;;;;;;;9.80;99.90;;;;;;5034876;28;19913;-80
2023/02/03 04:03:49;;;;;;;;;;;9.80;99.90;;;;;;5033880;28;19935;-80
2023/02/03 04:06:14;;;;;;;;;;;9.70;99.90;;;;;;5035433;28;19992;-81
2023/02/03 04:08:40;;;;;;;;;;;9.80;99.90;;;;;;5034091;28;20011;-80
2023/02/03 04:11:05;;;;;;;;;;;9.90;99.90;;;;;;5034761;28;19913;-81
2023/02/03 04:13:31;;;;;;;;;;;9.80;99.90;;;;;;5035356;28;19909;-81
2023/02/03 04:15:57;;;;;;;;;;;9.90;99.90;;;;;;5033851;28;19979;-80
2023/02/03 04:18:22;;;;;;;;;;;9.90;99.90;;;;;;5033546;28;20421;-80
2023/02/03 04:20:48;;;;;;;;;;;10.00;99.90;;;;;;5033562;28;20432;-81
2023/02/03 04:23:13;;;;;;;;;;;10.00;99.90;;;;;;5034395;28;19924;-81
2023/02/03 04:25:38;;;;;;;;;;;10.00;99.90;;;;;;5033420;28;20016;-80
2023/02/03 04:28:05;;;;;;;;;;;10.00;99.90;;;;;;5034830;28;19959;-81
2023/02/03 04:30:30;;;;;;;;;;;10.00;99.90;;;;;;5033840;28;19917;-81
2023/02/03 04:32:55;;;;;;;;;;;10.00;99.90;;;;;;5034917;28;19909;-80
2023/02/03 04:35:21;;;;;;;;;;;9.90;99.90;;;;;;5034841;28;19916;-80
2023/02/03 04:37:46;;;;;;;;;;;9.90;99.90;;;;;;5033171;28;20304;-80
2023/02/03 04:40:12;;;;;;;;;;;10.00;99.90;;;;;;5036215;28;19977;-81
2023/02/03 04:42:38;;;;;;;;;;;10.00;99.90;;;;;;5036641;28;19921;-80
2023/02/03 04:45:05;;;;;;;;;;;10.00;99.90;;;;;;5036780;28;19924;-81
2023/02/03 04:47:30;;;;;;;;;;;10.00;99.90;;;;;;5036707;28;19913;-81
2023/02/03 04:49:56;;;;;;;;;;;10.00;99.90;;;;;;5036988;28;19935;-81
2023/02/03 04:52:21;;;;;;;;;;;10.00;99.90;;;;;;5036419;28;19916;-79
2023/02/03 04:54:47;;;;;;;;;;;9.90;99.90;;;;;;5036875;28;19909;-80
2023/02/03 04:57:12;;;;;;;;;;;10.00;99.90;;;;;;5036222;28;19909;-80
2023/02/03 04:59:37;;;;;;;;;;;10.00;99.90;;;;;;5036374;28;19913;-80
2023/02/03 05:02:03;;;;;;;;;;;9.90;99.90;;;;;;5037427;28;20279;-81
2023/02/03 05:04:29;;;;;;;;;;;9.90;99.90;;;;;;5036470;28;19971;-81
2023/02/03 05:06:55;;;;;;;;;;;9.90;99.90;;;;;;5037326;28;20370;-80
2023/02/03 05:09:21;;;;;;;;;;;9.90;99.90;;;;;;5038032;28;19944;-81
2023/02/03 05:11:46;;;;;;;;;;;9.90;99.90;;;;;;5037215;28;19909;-79
2023/02/03 05:14:11;;;;;;;;;;;9.90;99.90;;;;;;5036623;28;19916;-80
2023/02/03 05:16:37;;;;;;;;;;;9.90;99.90;;;;;;5037686;28;19952;-81
2023/02/03 05:19:02;;;;;;;;;;;10.00;99.90;;;;;;5037236;28;19909;-80
2023/02/03 05:21:28;;;;;;;;;;;9.90;99.90;;;;;;5035705;28;19940;-80
2023/02/03 05:23:53;;;;;;;;;;;9.90;99.90;;;;;;5035405;28;20389;-81
2023/02/03 05:26:19;;;;;;;;;;;9.90;99.90;;;;;;5037625;28;19909;-80
2023/02/03 05:28:44;;;;;;;;;;;9.90;99.90;;;;;;5036741;28;19999;-81
2023/02/03 05:31:10;;;;;;;;;;;9.90;99.90;;;;;;5035757;28;19909;-80
2023/02/03 05:33:35;;;;;;;;;;;9.90;99.90;;;;;;5036640;28;19925;-81
2023/02/03 05:36:01;;;;;;;;;;;9.90;99.90;;;;;;5036873;28;20417;-80
2023/02/03 05:38:26;;;;;;;;;;;9.90;99.90;;;;;;5036799;28;19952;-80
2023/02/03 05:43:36;;;;;;;;;;;9.90;99.90;;;;;;5036476;28;19923;-80
2023/02/03 05:46:02;;;;;;;;;;;9.90;99.90;;;;;;5035558;28;19992;-81
2023/02/03 05:48:28;;;;;;;;;;;9.90;99.90;;;;;;5036819;28;19924;-81
2023/02/03 05:50:54;;;;;;;;;;;9.90;99.90;;;;;;5035080;28;19909;-81
2023/02/03 05:53:19;;;;;;;;;;;9.80;99.90;;;;;;5036358;28;20321;-80
2023/02/03 05:55:44;;;;;;;;;;;9.90;99.90;;;;;;5034855;28;19909;-79
2023/02/03 05:58:10;;;;;;;;;;;9.90;99.90;;;;;;5035621;28;19916;-81
2023/02/03 06:00:35;;;;;;;;;;;9.80;99.90;;;;;;5037573;28;19909;-80
2023/02/03 06:03:02;;;;;;;;;;;9.80;99.90;;;;;;5036445;28;19915;-80
2023/02/03 06:05:28;;;;;;;;;;;9.90;99.90;;;;;;5035668;28;19999;-80
2023/02/03 06:07:53;;;;;;;;;;;9.90;99.90;;;;;;5035013;28;20012;-80
2023/02/03 06:10:19;;;;;;;;;;;9.90;99.90;;;;;;5034955;28;19944;-80
2023/02/03 06:12:45;;;;;;;;;;;10.00;99.90;;;;;;5036131;28;19916;-79
2023/02/03 06:15:11;;;;;;;;;;;10.00;99.90;;;;;;5035926;28;19909;-80
2023/02/03 06:17:36;;;;;;;;;;;9.90;99.90;;;;;;5036297;28;19916;-81
2023/02/03 06:20:06;;;;;;;;;;;9.90;99.90;;;;;;5035938;28;19924;-80
2023/02/03 06:22:31;;;;;;;;;;;9.90;99.90;;;;;;5034523;28;19916;-79
2023/02/03 06:24:57;;;;;;;;;;;9.90;99.90;;;;;;5034218;28;19921;-81
2023/02/03 06:27:23;;;;;;;;;;;9.90;99.90;;;;;;5034374;28;19973;-80
2023/02/03 06:29:49;;;;;;;;;;;10.00;99.90;;;;;;5034374;28;19909;-79
2023/02/03 06:32:14;;;;;;;;;;;10.00;99.90;;;;;;5034165;28;19916;-82
2023/02/03 06:34:40;;;;;;;;;;;9.90;99.90;;;;;;5034583;28;20351;-81
2023/02/03 06:37:05;;;;;;;;;;;10.00;99.90;;;;;;5034497;28;19999;-81
2023/02/03 06:39:31;;;;;;;;;;;10.00;99.90;;;;;;5036233;28;19909;-80
2023/02/03 06:41:56;;;;;;;;;;;9.90;99.90;;;;;;5034157;28;19963;-80
2023/02/03 06:44:22;;;;;;;;;;;9.90;99.90;;;;;;5034458;28;20267;-80
2023/02/03 06:46:49;;;;;;;;;;;9.90;99.90;;;;;;5034190;28;19913;-81
2023/02/03 06:49:16;;;;;;;;;;;9.90;99.90;;;;;;5035438;28;19909;-79
2023/02/03 06:51:41;;;;;;;;;;;9.80;99.90;;;;;;5033451;28;19955;-79
2023/02/03 06:54:07;;;;;;;;;;;9.90;99.90;;;;;;5035520;28;19914;-79
2023/02/03 06:56:33;;;;;;;;;;;9.80;99.90;;;;;;5033950;28;19909;-79
2023/02/03 06:58:58;;;;;;;;;;;9.90;99.90;;;;;;5035616;28;19910;-80
2023/02/03 07:01:24;;;;;;;;;;;9.90;99.90;;;;;;5034764;28;19909;-78
2023/02/03 07:03:50;;;;;;;;;;;9.90;99.90;;;;;;5032673;28;19956;-79
2023/02/03 07:06:16;;;;;;;;;;;9.80;99.90;;;;;;5034737;28;19913;-80
2023/02/03 07:08:41;;;;;;;;;;;9.90;99.90;;;;;;5034691;28;19920;-78
2023/02/03 07:11:07;;;;;;;;;;;9.90;99.90;;;;;;5034288;28;19924;-79
2023/02/03 07:13:32;;;;;;;;;;;9.90;99.90;;;;;;5035840;28;19916;-79
2023/02/03 07:15:58;;;;;;;;;;;9.90;99.90;;;;;;5035085;28;19920;-80
2023/02/03 07:18:25;;;;;;;;;;;9.90;99.90;;;;;;5034565;28;19916;-79
2023/02/03 07:20:51;;;;;;;;;;;9.90;99.90;;;;;;5034769;28;19952;-78
2023/02/03 07:23:17;;;;;;;;;;;10.00;99.90;;;;;;5032526;28;19959;-80
2023/02/03 07:25:42;;;;;;;;;;;10.00;99.90;;;;;;5032727;28;20283;-79
2023/02/03 07:28:08;;;;;;;;;;;10.00;99.90;;;;;;5033100;28;20011;-78
2023/02/03 07:30:33;;;;;;;;;;;10.00;99.90;;;;;;5033020;28;19909;-79
2023/02/03 07:32:59;;;;;;;;;;;10.00;99.90;;;;;;5032653;28;20371;-79
2023/02/03 07:35:26;;;;;;;;;;;10.10;99.90;;;;;;5034622;28;19917;-79
2023/02/03 07:37:51;;;;;;;;;;;10.00;99.90;;;;;;5032763;28;20386;-79
2023/02/03 07:40:17;;;;;;;;;;;10.10;99.90;;;;;;5032806;28;19909;-79
2023/02/03 07:42:43;;;;;;;;;;;10.10;99.90;;;;;;5032467;28;20405;-79
2023/02/03 07:45:09;;;;;;;;;;;10.10;99.90;;;;;;5032732;28;20378;-80
2023/02/03 07:47:35;;;;;;;;;;;10.10;99.90;;;;;;5032423;28;19913;-80
2023/02/03 07:50:01;;;;;;;;;;;10.20;99.90;;;;;;5033389;28;19909;-78
2023/02/03 07:52:26;;;;;;;;;;;10.20;99.90;;;;;;5032228;28;19909;-80
2023/02/03 07:54:52;;;;;;;;;;;10.20;99.90;;;;;;5032286;28;20279;-79
2023/02/03 07:57:17;;;;;;;;;;;10.20;99.90;;;;;;5033993;28;19987;-79
2023/02/03 07:59:43;;;;;;;;;;;10.10;99.90;;;;;;5032322;28;19909;-80
2023/02/03 08:02:10;;;;;;;;;;;10.20;99.90;;;;;;5033359;28;20283;-78
2023/02/03 08:04:35;;;;;;;;;;;10.10;99.90;;;;;;5033825;28;20027;-80
2023/02/03 08:07:01;;;;;;;;;;;10.10;99.90;;;;;;5033873;28;20354;-80
2023/02/03 08:09:27;;;;;;;;;;;10.10;99.90;;;;;;5033585;28;20334;-79
2023/02/03 08:11:52;;;;;;;;;;;10.10;99.90;;;;;;5032117;28;19960;-79
2023/02/03 08:14:18;;;;;;;;;;;10.20;99.90;;;;;;5032296;28;20562;-80
2023/02/03 08:16:43;;;;;;;;;;;10.20;99.90;;;;;;5036350;28;19909;-78
2023/02/03 08:19:09;;;;;;;;;;;10.20;99.90;;;;;;5036078;28;19909;-79
2023/02/03 08:21:34;;;;;;;;;;;10.30;99.90;;;;;;5037626;28;20367;-79
2023/02/03 08:24:00;;;;;;;;;;;10.20;99.90;;;;;;5036213;28;19909;-79
2023/02/03 08:26:25;;;;;;;;;;;10.10;99.90;;;;;;5037804;28;19916;-79
2023/02/03 08:28:51;;;;;;;;;;;10.10;99.90;;;;;;5037066;28;20016;-78
2023/02/03 08:31:16;;;;;;;;;;;10.10;99.90;;;;;;5040041;28;20398;-79
2023/02/03 08:43:42;;;;;;;;;;;;;;;;;;;;;
2023/02/03 08:46:14;;;;;;;;;;;9.90;99.90;;;;;;4997035;28;19913;-79
2023/02/03 08:48:55;;;;;;;;;;;10.00;99.90;;;;;;4986083;28;19913;-80
2023/02/03 08:51:51;;;;;;;;;;;10.00;99.90;;;;;;4996759;28;19910;-79
2023/02/03 08:54:45;;;;;;;;;;;10.00;99.90;;;;;;4992625;28;19910;-80
2023/02/03 08:57:36;;;;;;;;;;;10.00;99.90;;;;;;4969035;28;19917;-79
2023/02/03 09:00:30;;;;;;;;;;;;;;;;;;;;;
2023/02/03 09:16:02;;;;;;;;;;;10.00;99.90;;;;;;5024666;28;19959;-79
2023/02/03 09:19:15;;;;;;;;;;;9.90;99.90;;;;;;5076023;28;20465;-80
2023/02/03 09:22:15;;;;;;;;;;;10.00;99.90;;;;;;5073179;28;19908;-80
2023/02/03 09:25:03;;;;;;;;;;;9.90;99.90;;;;;;5049013;28;19916;-80
2023/02/03 09:27:35;;;;;;;;;;;10.00;99.90;;;;;;5058335;28;19917;-80
2023/02/03 09:33:19;;;;;;;;;;;9.90;99.90;;;;;;5119313;22;20038;-79
2023/02/03 09:45:20;;;;;;;;;;;;;;;;;;;;;
2023/02/03 09:48:16;;;;;;;;;;;9.90;99.90;;;;;;5076197;28;19916;-79
2023/02/03 09:57:25;;;;;;;;;;;9.90;99.90;;;;;;5076570;28;19916;-79
2023/02/03 10:03:33;;;;;;;;;;;9.90;99.90;;;;;;4974592;28;20001;-79
2023/02/03 10:09:40;;;;;;;;;;;9.70;99.90;;;;;;5076772;28;19916;-80
2023/02/03 10:15:57;;;;;;;;;;;9.50;99.90;;;;;;4974632;28;19982;-79
2023/02/03 10:18:57;;;;;;;;;;;;;;;;;;;;;
2023/02/03 10:28:21;;;;;;;;;;;;;;;;;;;;;
2023/02/03 10:31:22;;;;;;;;;;;9.30;99.90;;;;;;4973856;28;19914;-79
2023/02/03 11:14:20;;;;;;;;;;;;;;;;;;;;;
2023/02/03 11:17:21;;;;;;;;;;;9.50;99.90;;;;;;4954102;29;19911;-80
2023/02/03 11:20:40;;;;;;;;;;;9.60;99.90;;;;;;4955615;28;19953;-79
2023/02/03 11:33:07;;;;;;;;;;;9.90;99.90;;;;;;4883697;29;20032;-79
2023/02/03 12:23:40;;;;;;;;;;;;;;;;;;;;;
2023/02/03 12:29:47;;;;;;;;;;;10.30;99.90;;;;;;5014606;28;20430;-80
2023/02/03 13:06:53;;;;;;;;;;;10.40;99.90;;;;;;4977912;28;19917;-81
2023/02/03 13:31:56;;;;;;;;;;;10.40;99.90;;;;;;5058157;28;19963;-80
2023/02/03 13:47:16;;;;;;;;;;;10.60;99.90;;;;;;5034409;28;19960;-80
2023/02/03 13:56:27;;;;;;;;;;;10.60;99.90;;;;;;4937093;29;19921;-81
2023/02/03 14:02:30;;;;;;;;;;;10.70;99.90;;;;;;4918127;29;19971;-80
2023/02/03 14:08:22;;;;;;;;;;;10.90;99.90;;;;;;4919171;29;20402;-80
2023/02/03 14:11:27;;;;;;;;;;;11.10;99.90;;;;;;4879498;29;19934;-80
2023/02/03 14:17:41;;;;;;;;;;;11.40;99.90;;;;;;4862117;29;19969;-81
2023/02/03 14:20:44;;;;;;;;;;;;;;;;;;;;;
2023/02/03 14:46:53;;;;;;;;;;;11.60;99.90;;;;;;5074643;28;19924;-80
2023/02/03 14:52:40;;;;;;;;;;;11.70;99.90;;;;;;5078660;28;19916;-78
2023/02/03 15:05:32;;;;;;;;;;;;;;;;;;;;;
2023/02/03 15:08:23;;;;;;;;;;;11.60;99.90;;;;;;4949806;28;19917;-81
2023/02/03 15:14:46;;;;;;;;;;;11.60;99.90;;;;;;4959683;28;19914;-79
2023/02/03 15:17:48;;;;;;;;;;;11.50;99.90;;;;;;4976118;28;19918;-78
2023/02/03 15:21:08;;;;;;;;;;;11.60;99.90;;;;;;4945411;28;20336;-80
2023/02/03 15:24:03;;;;;;;;;;;11.40;99.90;;;;;;4964847;28;19934;-80
2023/02/03 15:26:36;;;;;;;;;;;11.40;99.90;;;;;;4953000;28;19997;-80
2023/02/03 15:32:28;;;;;;;;;;;11.50;99.90;;;;;;5012966;28;19909;-78
2023/02/03 15:34:57;;;;;;;;;;;11.40;99.90;;;;;;5035295;28;20379;-77
2023/02/03 15:37:45;;;;;;;;;;;11.30;99.90;;;;;;5035632;28;20429;-78
2023/02/03 15:40:34;;;;;;;;;;;11.30;99.90;;;;;;5033260;28;19916;-78
2023/02/03 15:43:24;;;;;;;;;;;11.30;99.90;;;;;;5033306;28;20236;-78
2023/02/03 15:46:15;;;;;;;;;;;11.20;99.90;;;;;;5033349;28;19913;-80
2023/02/03 15:51:55;;;;;;;;;;;11.20;99.90;;;;;;5035496;28;20020;-78
2023/02/03 15:54:44;;;;;;;;;;;11.10;99.90;;;;;;5030645;28;19909;-78
2023/02/03 16:00:57;;;;;;;;;;;10.80;99.90;;;;;;5034462;28;19909;-80
2023/02/03 16:03:43;;;;;;;;;;;10.60;99.90;;;;;;5045852;28;19909;-80
2023/02/03 16:06:39;;;;;;;;;;;10.60;99.90;;;;;;5032997;28;19909;-80
2023/02/03 16:09:43;;;;;;;;;;;10.50;99.90;;;;;;5016429;28;19996;-81
2023/02/03 16:12:39;;;;;;;;;;;10.40;99.90;;;;;;5031677;28;19909;-78
2023/02/03 16:15:25;;;;;;;;;;;10.30;99.90;;;;;;5034098;28;20004;-80
2023/02/03 16:18:13;;;;;;;;;;;10.30;99.90;;;;;;5032172;28;19913;-80
2023/02/03 16:24:23;;;;;;;;;;;10.20;99.90;;;;;;5031048;28;19916;-80
2023/02/03 16:27:00;;;;;;;;;;;10.10;99.90;;;;;;5049241;28;19910;-80
2023/02/03 16:51:07;;;;;;;;;;;10.00;99.90;;;;;;5037902;28;19932;-81
2023/02/03 16:53:51;;;;;;;;;;;;;;;;;;;;;
2023/02/03 16:56:35;;;;;;;;;;;10.00;99.90;;;;;;5037371;28;19909;-81
2023/02/03 16:59:18;;;;;;;;;;;10.00;99.90;;;;;;5037024;28;19913;-81
2023/02/03 17:01:59;;;;;;;;;;;10.00;99.90;;;;;;5035084;28;19909;-81
2023/02/03 17:07:29;;;;;;;;;;;10.00;99.90;;;;;;5036785;28;20006;-81
2023/02/03 17:10:26;;;;;;;;;;;9.90;99.90;;;;;;5033904;28;19916;-80
2023/02/03 17:13:14;;;;;;;;;;;9.90;99.90;;;;;;5030662;28;19916;-80
2023/02/03 17:15:42;;;;;;;;;;;9.90;99.90;;;;;;5034348;28;19909;-78
2023/02/03 17:18:49;;;;;;;;;;;9.90;99.90;;;;;;5033536;28;20368;-78
2023/02/03 17:21:27;;;;;;;;;;;9.80;99.90;;;;;;5028207;28;19909;-80
2023/02/03 17:24:15;;;;;;;;;;;9.80;99.90;;;;;;5033757;28;19941;-80
2023/02/03 17:27:01;;;;;;;;;;;9.80;99.90;;;;;;5028842;28;19953;-80
2023/02/03 17:29:45;;;;;;;;;;;;;;;;;;;;;
2023/02/03 17:35:20;;;;;;;;;;;9.70;99.90;;;;;;5041270;23;19925;-80
2023/02/03 17:37:53;;;;;;;;;;;9.70;99.90;;;;;;5014293;28;19963;-80
2023/02/03 17:40:24;;;;;;;;;;;9.70;99.90;;;;;;5018745;28;20381;-80
2023/02/03 17:43:09;;;;;;;;;;;9.70;99.90;;;;;;5035653;28;19910;-80
2023/02/03 17:49:03;;;;;;;;;;;9.70;99.90;;;;;;5036864;28;20374;-79
2023/02/03 17:51:56;;;;;;;;;;;;;;;;;;;;;
2023/02/03 17:54:41;;;;;;;;;;;9.80;99.90;;;;;;5036948;28;19913;-79
2023/02/03 17:57:21;;;;;;;;;;;9.70;99.90;;;;;;5037823;28;19910;-80
2023/02/03 17:59:54;;;;;;;;;;;9.80;99.90;;;;;;5019428;28;19913;-80
2023/02/03 18:02:41;;;;;;;;;;;9.70;99.90;;;;;;5021078;28;20377;-80
2023/02/03 18:05:17;;;;;;;;;;;9.80;99.90;;;;;;5036773;28;19910;-80
2023/02/03 18:08:08;;;;;;;;;;;;;;;;;;;;;
2023/02/03 18:10:47;;;;;;;;;;;9.80;99.90;;;;;;5035860;28;19913;-80
2023/02/03 18:25:57;;;;;;;;;;;9.60;99.90;;;;;;4993676;28;20376;-79
2023/02/03 18:28:51;;;;;;;;;;;9.70;99.90;;;;;;4993659;28;19909;-79
2023/02/03 18:31:42;;;;;;;;;;;;;;;;;;;;;
2023/02/03 18:34:39;;;;;;;;;;;9.60;99.90;;;;;;5030584;28;19917;-80
2023/02/03 18:37:26;;;;;;;;;;;9.60;99.90;;;;;;5017762;28;19909;-79
2023/02/03 18:40:04;;;;;;;;;;;;;;;;;;;;;
2023/02/03 18:42:40;;;;;;;;;;;9.70;99.90;;;;;;5034587;28;19909;-80
2023/02/03 18:45:34;;;;;;;;;;;9.70;99.90;;;;;;5035230;28;20018;-80
2023/02/03 18:48:13;;;;;;;;;;;9.70;99.90;;;;;;5020585;28;19909;-80
2023/02/03 18:50:55;;;;;;;;;;;9.70;99.90;;;;;;5035149;28;20004;-79
2023/02/03 18:53:33;;;;;;;;;;;9.70;99.90;;;;;;5017335;28;20371;-80
2023/02/03 18:59:04;;;;;;;;;;;9.70;99.90;;;;;;5035102;28;20022;-80
2023/02/03 19:02:01;;;;;;;;;;;9.70;99.90;;;;;;5035172;28;20310;-79
2023/02/03 19:07:35;;;;;;;;;;;9.70;99.90;;;;;;5035431;28;19909;-79
2023/02/03 19:10:07;;;;;;;;;;;9.80;99.90;;;;;;5016674;28;19909;-80
2023/02/03 19:15:48;;;;;;;;;;;9.80;99.90;;;;;;5073962;28;20267;-79
2023/02/03 19:18:24;;;;;;;;;;;9.80;99.90;;;;;;5074870;28;19916;-80
2023/02/03 19:21:09;;;;;;;;;;;;;;;;;;;;;
2023/02/03 19:26:43;;;;;;;;;;;9.90;99.90;;;;;;5100221;22;19908;-83
2023/02/03 19:29:08;;;;;;;;;;;9.90;99.90;;;;;;5054722;28;20007;-80
2023/02/03 19:31:34;;;;;;;;;;;9.90;99.90;;;;;;5072926;28;19954;-80
2023/02/03 19:34:00;;;;;;;;;;;9.80;99.90;;;;;;5073026;28;20353;-80
2023/02/03 19:36:26;;;;;;;;;;;9.90;99.90;;;;;;5072887;28;20354;-80
2023/02/03 19:38:52;;;;;;;;;;;9.90;99.90;;;;;;5072692;28;19923;-80
2023/02/03 19:41:17;;;;;;;;;;;9.90;99.90;;;;;;5073596;28;19908;-80
2023/02/03 19:43:43;;;;;;;;;;;9.90;99.90;;;;;;5055367;28;19912;-80
2023/02/03 19:46:08;;;;;;;;;;;9.90;99.90;;;;;;5073448;28;19909;-80
2023/02/03 19:48:34;;;;;;;;;;;9.90;99.90;;;;;;5073554;28;19909;-81
2023/02/03 19:51:00;;;;;;;;;;;9.90;99.90;;;;;;5073577;28;20384;-81
2023/02/03 19:53:25;;;;;;;;;;;9.90;99.90;;;;;;5073427;28;19909;-80
2023/02/03 19:55:51;;;;;;;;;;;9.90;99.90;;;;;;5073542;28;19909;-80
2023/02/03 19:58:16;;;;;;;;;;;9.90;99.90;;;;;;5055041;28;20007;-80
2023/02/03 20:00:42;;;;;;;;;;;9.90;99.90;;;;;;5055120;28;20350;-80
2023/02/03 20:03:08;;;;;;;;;;;9.90;99.90;;;;;;5072506;28;19920;-80
2023/02/03 20:05:34;;;;;;;;;;;9.80;99.90;;;;;;5054845;28;19919;-80
2023/02/03 20:08:00;;;;;;;;;;;9.90;99.90;;;;;;5073485;28;19955;-80
2023/02/03 20:10:25;;;;;;;;;;;9.90;99.90;;;;;;5059150;28;19916;-80
2023/02/03 20:12:52;;;;;;;;;;;9.90;99.90;;;;;;5061091;28;19909;-80
2023/02/03 20:15:17;;;;;;;;;;;9.90;99.90;;;;;;5079477;28;19908;-80
2023/02/03 20:17:43;;;;;;;;;;;9.90;99.90;;;;;;5061222;28;19912;-80
2023/02/03 20:20:09;;;;;;;;;;;9.80;99.90;;;;;;5062005;28;19908;-80
2023/02/03 20:22:34;;;;;;;;;;;9.80;99.90;;;;;;5061505;28;19951;-80
2023/02/03 20:25:00;;;;;;;;;;;9.80;99.90;;;;;;5063685;28;19909;-80
2023/02/03 20:27:25;;;;;;;;;;;9.90;99.90;;;;;;5061110;28;19916;-80
2023/02/03 20:29:52;;;;;;;;;;;9.90;99.90;;;;;;5061163;28;19909;-80
2023/02/03 20:32:18;;;;;;;;;;;9.90;99.90;;;;;;5080249;28;19908;-80
2023/02/03 20:34:44;;;;;;;;;;;9.90;99.90;;;;;;5081365;28;20357;-80
2023/02/03 20:37:09;;;;;;;;;;;9.90;99.90;;;;;;5061066;28;19955;-80
2023/02/03 20:39:35;;;;;;;;;;;9.90;99.90;;;;;;5078967;28;19979;-81
2023/02/03 20:42:01;;;;;;;;;;;9.90;99.90;;;;;;5060802;28;19908;-80
2023/02/03 20:44:26;;;;;;;;;;;9.90;99.90;;;;;;5060884;28;19952;-80
2023/02/03 20:46:52;;;;;;;;;;;9.90;99.90;;;;;;5080365;28;19909;-80
2023/02/03 20:49:18;;;;;;;;;;;9.90;99.90;;;;;;5061922;28;19913;-81
2023/02/03 20:51:44;;;;;;;;;;;9.90;99.90;;;;;;5079741;28;19954;-80
2023/02/03 20:54:20;;;;;;;;;;;9.90;99.90;;;;;;5079860;28;19908;-80
2023/02/03 20:56:45;;;;;;;;;;;9.90;99.90;;;;;;5079645;28;19912;-80
2023/02/03 20:59:12;;;;;;;;;;;9.90;99.90;;;;;;5061476;28;20414;-80
2023/02/03 21:01:37;;;;;;;;;;;9.90;99.90;;;;;;5079251;28;19931;-80
2023/02/03 21:06:54;;;;;;;;;;;9.90;99.90;;;;;;5080231;28;20046;-80
2023/02/03 21:09:21;;;;;;;;;;;9.90;99.90;;;;;;5061512;28;19909;-81
2023/02/03 21:11:46;;;;;;;;;;;9.80;99.90;;;;;;5079511;28;19908;-81
2023/02/03 21:14:19;;;;;;;;;;;9.80;99.90;;;;;;5079591;28;19943;-80
2023/02/03 21:16:46;;;;;;;;;;;9.90;99.90;;;;;;5061360;28;20015;-81
2023/02/03 21:19:15;;;;;;;;;;;9.80;99.90;;;;;;5061258;28;20360;-80
2023/02/03 21:21:41;;;;;;;;;;;9.80;99.90;;;;;;5058890;28;19932;-81
2023/02/03 21:24:25;;;;;;;;;;;9.90;99.90;;;;;;5058196;28;19908;-81